createdAt,value
2023-04-15T00:02:20.948Z,3.00
2023-04-15T00:04:49.989Z,4.05
2023-04-15T00:07:17.996Z,4.45
2023-04-15T00:09:46.088Z,4.35
2023-04-15T00:12:15.459Z,3.53
2023-04-15T00:14:43.478Z,8.15
2023-04-15T00:17:11.138Z,2.90
2023-04-15T00:19:39.166Z,6.40
2023-04-15T00:22:07.063Z,2.60
2023-04-15T00:24:34.729Z,3.47
2023-04-15T00:27:03.090Z,5.88
2023-04-15T00:29:32.504Z,3.50
2023-04-15T00:32:00.205Z,5.28
2023-04-15T00:34:29.485Z,4.20
2023-04-15T00:36:57.192Z,5.55
2023-04-15T00:39:25.033Z,6.28
2023-04-15T00:41:54.047Z,2.35
2023-04-15T00:44:21.756Z,3.45
2023-04-15T00:46:52.972Z,3.53
2023-04-15T00:49:21.388Z,3.47
2023-04-15T00:51:49.100Z,4.15
2023-04-15T00:54:17.253Z,3.17
2023-04-15T00:56:45.750Z,4.85
2023-04-15T00:59:13.460Z,3.30
2023-04-15T01:01:41.803Z,4.25
2023-04-15T01:04:15.282Z,3.35
2023-04-15T01:06:43.040Z,3.38
2023-04-15T01:09:11.078Z,3.58
2023-04-15T01:14:28.813Z,5.90
2023-04-15T01:16:56.503Z,3.42
2023-04-15T01:19:26.082Z,2.67
2023-04-15T01:24:22.080Z,5.03
2023-04-15T01:26:51.308Z,7.35
2023-04-15T01:29:20.062Z,4.40
2023-04-15T01:31:52.591Z,4.60
2023-04-15T01:34:21.128Z,3.10
2023-04-15T01:36:49.133Z,5.03
2023-04-15T01:39:16.862Z,2.65
2023-04-15T01:41:45.219Z,5.00
2023-04-15T01:44:14.304Z,4.45
2023-04-15T01:46:42.227Z,2.95
2023-04-15T01:49:09.952Z,2.95
2023-04-15T01:51:37.637Z,4.78
2023-04-15T01:54:05.386Z,3.40
2023-04-15T01:56:33.854Z,5.93
2023-04-15T01:59:01.858Z,4.80
2023-04-15T02:01:31.854Z,3.97
2023-04-15T02:04:00.155Z,4.05
2023-04-15T02:06:28.153Z,4.30
2023-04-15T02:08:55.841Z,5.35
2023-04-15T02:11:24.296Z,4.25
2023-04-15T02:13:52.304Z,5.72
2023-04-15T02:16:20.567Z,2.42
2023-04-15T02:18:50.249Z,4.20
2023-04-15T02:23:48.273Z,6.57
2023-04-15T02:26:16.573Z,5.68
2023-04-15T02:28:44.308Z,4.55
2023-04-15T02:31:11.990Z,5.15
2023-04-15T02:33:40.401Z,5.25
2023-04-15T02:36:11.425Z,3.17
2023-04-15T02:38:41.319Z,4.18
2023-04-15T02:41:10.532Z,5.70
2023-04-15T02:43:39.931Z,4.20
2023-04-15T02:46:08.820Z,2.88
2023-04-15T02:48:36.915Z,3.83
2023-04-15T02:51:21.290Z,2.53
2023-04-15T02:53:49.718Z,5.18
2023-04-15T02:56:19.327Z,3.15
2023-04-15T03:01:15.061Z,4.03
2023-04-15T03:03:43.025Z,5.78
2023-04-15T03:06:11.460Z,3.63
2023-04-15T03:08:40.505Z,5.05
2023-04-15T03:11:09.639Z,5.15
2023-04-15T03:13:40.190Z,5.40
2023-04-15T03:16:08.508Z,5.72
2023-04-15T03:18:36.314Z,6.80
2023-04-15T03:21:04.655Z,8.05
2023-04-15T03:23:32.546Z,8.40
2023-04-15T03:26:05.565Z,10.15
2023-04-15T03:28:33.668Z,11.52
2023-04-15T03:31:01.644Z,13.25
2023-04-15T03:33:29.898Z,13.02
2023-04-15T03:35:57.603Z,16.35
2023-04-15T03:38:25.439Z,16.90
2023-04-15T03:40:53.761Z,19.20
2023-04-15T03:43:22.824Z,17.48
2023-04-15T03:45:50.728Z,19.55
2023-04-15T03:48:18.995Z,18.33
2023-04-15T03:50:47.099Z,17.55
2023-04-15T03:53:14.981Z,17.08
2023-04-15T03:55:43.840Z,15.90
2023-04-15T03:58:12.924Z,15.63
2023-04-15T04:00:42.483Z,15.05
2023-04-15T04:03:10.894Z,16.63
2023-04-15T04:05:41.457Z,12.75
2023-04-15T04:08:09.170Z,13.63
2023-04-15T04:10:37.486Z,13.10
2023-04-15T04:13:05.143Z,16.38
2023-04-15T04:15:32.890Z,15.13
2023-04-15T04:18:02.895Z,14.23
2023-04-15T04:20:31.977Z,13.48
2023-04-15T04:22:59.828Z,17.00
2023-04-15T04:25:28.041Z,13.00
2023-04-15T04:27:56.003Z,13.75
2023-04-15T04:30:23.721Z,10.77
2023-04-15T04:32:52.270Z,14.10
2023-04-15T04:35:21.931Z,10.55
2023-04-15T04:40:17.959Z,11.05
2023-04-15T04:42:46.003Z,9.90
2023-04-15T04:45:14.116Z,13.10
2023-04-15T04:47:42.399Z,9.20
2023-04-15T04:50:10.588Z,12.00
2023-04-15T04:52:39.784Z,9.70
2023-04-15T04:55:09.038Z,11.32
2023-04-15T04:57:37.723Z,9.82
2023-04-15T05:00:06.640Z,10.33
2023-04-15T05:02:35.546Z,9.98
2023-04-15T05:05:03.385Z,11.93
2023-04-15T05:07:31.176Z,9.45
2023-04-15T05:10:00.870Z,11.63
2023-04-15T05:14:56.089Z,11.07
2023-04-15T05:17:24.370Z,10.57
2023-04-15T05:19:52.082Z,8.10
2023-04-15T05:22:19.764Z,8.13
2023-04-15T05:24:48.189Z,8.40
2023-04-15T05:27:17.215Z,11.45
2023-04-15T05:29:44.890Z,10.25
2023-04-15T05:32:13.213Z,15.68
2023-04-15T05:34:40.987Z,11.18
2023-04-15T05:37:08.686Z,10.70
2023-04-15T05:39:36.939Z,10.90
2023-04-15T05:42:05.948Z,9.32
2023-04-15T05:44:35.417Z,10.98
2023-04-15T05:47:03.965Z,10.88
2023-04-15T05:49:31.915Z,12.68
2023-04-15T05:51:59.654Z,9.50
2023-04-15T05:54:28.469Z,11.43
2023-04-15T05:56:56.391Z,8.68
2023-04-15T05:59:24.094Z,10.98
2023-04-15T06:01:54.174Z,12.63
2023-04-15T06:04:22.029Z,11.65
2023-04-15T06:06:49.841Z,11.02
2023-04-15T06:09:17.913Z,8.70
2023-04-15T06:11:45.647Z,9.70
2023-04-15T06:14:13.325Z,10.23
2023-04-15T06:16:41.514Z,7.65
2023-04-15T06:19:10.620Z,10.93
2023-04-15T06:21:38.352Z,8.68
2023-04-15T06:24:06.971Z,11.43
2023-04-15T06:26:34.715Z,10.88
2023-04-15T06:29:04.170Z,9.68
2023-04-15T06:31:32.559Z,10.77
2023-04-15T06:34:00.694Z,9.90
2023-04-15T06:36:29.774Z,11.15
2023-04-15T06:38:58.193Z,8.98
2023-04-15T06:41:26.317Z,10.48
2023-04-15T06:43:54.004Z,12.00
2023-04-15T06:46:22.728Z,10.05
2023-04-15T06:48:50.450Z,11.57
2023-04-15T06:51:18.194Z,10.80
2023-04-15T06:53:47.396Z,11.82
2023-04-15T06:56:15.096Z,13.25
2023-04-15T06:58:42.780Z,12.20
2023-04-15T07:01:10.966Z,9.63
2023-04-15T07:03:39.004Z,9.07
2023-04-15T07:06:07.653Z,9.27
2023-04-15T07:08:35.870Z,9.50
2023-04-15T07:11:04.917Z,10.57
2023-04-15T07:13:33.397Z,10.40
2023-04-15T07:16:01.803Z,11.48
2023-04-15T07:18:29.503Z,10.88
2023-04-15T07:20:57.473Z,12.15
2023-04-15T07:23:25.789Z,11.23
2023-04-15T07:25:53.745Z,11.65
2023-04-15T07:28:22.827Z,9.48
2023-04-15T07:30:51.078Z,10.00
2023-04-15T07:33:18.795Z,9.18
2023-04-15T07:35:47.113Z,11.45
2023-04-15T07:38:15.380Z,14.63
2023-04-15T07:40:43.400Z,9.68
2023-04-15T07:43:11.137Z,14.38
2023-04-15T07:45:40.851Z,12.93
2023-04-15T07:50:36.128Z,12.48
2023-04-15T07:53:04.539Z,11.82
2023-04-15T07:55:32.217Z,13.18
2023-04-15T07:57:59.883Z,9.63
2023-04-15T08:00:28.433Z,10.20
2023-04-15T08:02:59.597Z,11.20
2023-04-15T08:05:27.367Z,13.32
2023-04-15T08:07:55.558Z,12.55
2023-04-15T08:10:23.699Z,14.00
2023-04-15T08:12:54.279Z,12.35
2023-04-15T08:15:22.717Z,14.25
2023-04-15T08:17:50.500Z,12.32
2023-04-15T08:20:21.384Z,14.95
2023-04-15T08:22:52.253Z,11.25
2023-04-15T08:25:20.267Z,17.20
2023-04-15T08:27:48.110Z,12.73
2023-04-15T08:30:16.592Z,14.60
2023-04-15T08:32:47.519Z,14.65
2023-04-15T08:35:15.435Z,13.38
2023-04-15T08:37:44.779Z,13.57
2023-04-15T08:40:13.576Z,13.70
2023-04-15T08:42:45.812Z,12.97
2023-04-15T08:45:13.620Z,16.45
2023-04-15T08:47:42.319Z,14.20
2023-04-15T08:50:11.925Z,13.17
2023-04-15T08:55:10.596Z,17.13
2023-04-15T08:57:40.029Z,14.05
2023-04-15T09:00:09.357Z,11.60
2023-04-15T09:02:37.497Z,18.13
2023-04-15T09:05:06.996Z,12.90
2023-04-15T09:07:35.713Z,13.75
2023-04-15T09:10:04.766Z,17.20
2023-04-15T09:12:36.157Z,12.93
2023-04-15T09:15:04.008Z,13.23
2023-04-15T09:17:34.433Z,15.80
2023-04-15T09:20:14.162Z,13.57
2023-04-15T09:22:42.262Z,12.95
2023-04-15T09:25:28.776Z,13.57
2023-04-15T09:27:59.075Z,11.27
2023-04-15T09:30:27.051Z,13.35
2023-04-15T09:32:56.738Z,9.93
2023-04-15T09:35:25.632Z,12.35
2023-04-15T09:37:54.529Z,8.50
2023-04-15T09:40:36.581Z,11.60
2023-04-15T09:43:06.492Z,10.45
2023-04-15T09:45:35.697Z,9.98
2023-04-15T09:48:18.138Z,10.10
2023-04-15T09:50:45.995Z,8.88
2023-04-15T09:53:18.132Z,9.65
2023-04-15T09:55:47.448Z,9.05
2023-04-15T09:58:23.786Z,11.18
2023-04-15T10:00:53.160Z,9.85
2023-04-15T10:03:22.700Z,8.98
2023-04-15T10:05:52.258Z,11.77
2023-04-15T10:08:22.377Z,10.90
2023-04-15T10:10:52.381Z,9.70
2023-04-15T10:13:24.704Z,9.70
2023-04-15T10:15:57.859Z,10.90
2023-04-15T10:18:27.483Z,10.52
2023-04-15T10:23:24.991Z,8.05
2023-04-15T10:25:54.366Z,9.73
2023-04-15T10:28:23.801Z,7.05
2023-04-15T10:30:52.864Z,15.18
2023-04-15T10:33:23.110Z,7.88
2023-04-15T10:35:52.019Z,9.05
2023-04-15T10:38:37.898Z,6.20
2023-04-15T10:41:18.747Z,5.55
2023-04-15T10:43:54.183Z,5.65
2023-04-15T10:46:35.909Z,7.40
2023-04-15T10:49:09.750Z,6.45
2023-04-15T10:51:41.601Z,5.03
2023-04-15T10:54:14.761Z,5.22
2023-04-15T10:56:43.763Z,4.55
2023-04-15T10:59:13.132Z,6.80
2023-04-15T11:01:55.487Z,4.28
2023-04-15T11:04:57.514Z,6.57
2023-04-15T11:07:36.171Z,5.15
2023-04-15T11:10:04.782Z,6.23
2023-04-15T11:12:37.166Z,3.92
2023-04-15T11:15:29.426Z,4.20
2023-04-15T11:17:58.309Z,5.15
2023-04-15T11:20:26.155Z,3.30
2023-04-15T11:23:14.495Z,3.40
2023-04-15T11:25:44.316Z,3.33
2023-04-15T11:28:13.546Z,3.80
2023-04-15T11:30:43.640Z,7.93
2023-04-15T11:33:14.397Z,5.82
2023-04-15T11:35:42.891Z,4.00
2023-04-15T11:38:12.165Z,3.33
2023-04-15T11:40:41.012Z,5.00
2023-04-15T11:43:09.865Z,4.95
2023-04-15T11:45:38.356Z,3.40
2023-04-15T11:48:12.497Z,5.88
2023-04-15T11:50:41.582Z,4.28
2023-04-15T11:53:10.822Z,3.20
2023-04-15T11:55:47.473Z,3.97
2023-04-15T11:58:16.896Z,3.13
2023-04-15T12:00:49.603Z,3.70
2023-04-15T12:03:24.196Z,4.25
2023-04-15T12:06:11.657Z,4.95
2023-04-15T12:09:01.229Z,5.53
2023-04-15T12:14:00.946Z,2.97
2023-04-15T12:16:29.725Z,4.30
2023-04-15T12:19:01.173Z,4.15
2023-04-15T12:21:34.493Z,7.95
2023-04-15T12:24:05.333Z,3.58
2023-04-15T12:26:36.864Z,2.97
2023-04-15T12:29:06.377Z,4.75
2023-04-15T12:34:03.833Z,3.97
2023-04-15T12:36:36.940Z,3.28
2023-04-15T12:39:05.316Z,3.15
2023-04-15T12:41:33.082Z,16.17
2023-04-15T12:44:01.531Z,4.10
2023-04-15T12:46:29.408Z,3.47
2023-04-15T12:48:57.921Z,3.35
2023-04-15T12:51:27.893Z,3.95
2023-04-15T12:53:55.573Z,3.47
2023-04-15T12:56:23.899Z,10.95
2023-04-15T12:58:52.396Z,3.42
2023-04-15T13:01:20.148Z,7.53
2023-04-15T13:03:48.132Z,3.97
2023-04-15T13:06:16.573Z,4.68
2023-04-15T13:08:57.377Z,3.83
2023-04-15T13:11:26.413Z,4.60
2023-04-15T13:13:54.066Z,4.43
2023-04-15T13:16:21.938Z,5.38
2023-04-15T13:18:50.078Z,3.33
2023-04-15T13:21:17.809Z,3.00
2023-04-15T13:23:47.148Z,3.65
2023-04-15T13:26:15.369Z,2.97
2023-04-15T13:28:43.089Z,2.80
2023-04-15T13:31:10.870Z,3.83
2023-04-15T13:33:39.133Z,6.53
2023-04-15T13:36:07.302Z,4.10
2023-04-15T13:38:34.995Z,4.30
2023-04-15T13:41:04.606Z,5.18
2023-04-15T13:48:30.380Z,6.18
2023-04-15T13:50:58.065Z,6.22
2023-04-15T13:53:33.964Z,4.80
2023-04-15T13:56:10.107Z,4.88
2023-04-15T13:58:38.519Z,6.35
2023-04-15T14:01:07.572Z,4.05
2023-04-15T14:03:36.985Z,5.82
2023-04-15T14:06:05.804Z,3.72
2023-04-15T14:08:33.766Z,4.45
2023-04-15T14:11:02.356Z,5.07
2023-04-15T14:13:31.514Z,4.68
2023-04-15T14:15:59.289Z,6.38
2023-04-15T14:18:27.579Z,3.50
2023-04-15T14:20:55.565Z,5.40
2023-04-15T14:23:23.320Z,4.28
2023-04-15T14:25:52.092Z,5.30
2023-04-15T14:28:19.804Z,7.15
2023-04-15T14:30:48.885Z,3.22
2023-04-15T14:33:17.422Z,3.47
2023-04-15T14:35:45.094Z,6.38
2023-04-15T14:38:12.771Z,2.72
2023-04-15T14:40:43.158Z,2.15
2023-04-15T14:43:10.872Z,2.88
2023-04-15T14:45:40.676Z,4.57
2023-04-15T14:48:13.204Z,2.95
2023-04-15T14:50:41.979Z,3.15
2023-04-15T14:53:10.032Z,2.30
2023-04-15T14:55:38.317Z,2.03
2023-04-15T14:58:08.152Z,3.40
2023-04-15T15:00:36.154Z,2.45
2023-04-15T15:03:04.579Z,2.97
2023-04-15T15:05:33.762Z,2.70
2023-04-15T15:08:01.519Z,4.55
2023-04-15T15:10:39.502Z,2.40
2023-04-15T15:13:17.767Z,4.25
2023-04-15T15:15:46.276Z,4.00
2023-04-15T15:18:14.045Z,5.80
2023-04-15T15:20:43.259Z,4.10
2023-04-15T15:23:11.292Z,5.05
2023-04-15T15:25:39.048Z,5.50
2023-04-15T15:28:07.629Z,4.97
2023-04-15T15:30:35.858Z,4.90
2023-04-15T15:33:03.613Z,5.38
2023-04-15T15:35:31.423Z,4.20
2023-04-15T15:38:01.315Z,3.58
2023-04-15T15:40:29.415Z,4.85
2023-04-15T15:42:57.092Z,4.78
2023-04-15T15:45:25.452Z,5.90
2023-04-15T15:47:53.228Z,7.43
2023-04-15T15:50:21.619Z,5.03
2023-04-15T15:52:49.883Z,5.80
2023-04-15T15:55:19.131Z,3.00
2023-04-15T15:57:46.796Z,7.18
2023-04-15T16:00:15.939Z,5.30
2023-04-15T16:05:14.972Z,7.60
2023-04-15T16:10:32.493Z,11.55
2023-04-15T16:13:00.752Z,7.55
2023-04-15T16:15:28.457Z,9.10
2023-04-15T16:17:56.152Z,9.50
2023-04-15T16:20:24.674Z,10.65
2023-04-15T16:22:52.551Z,7.97
2023-04-15T16:25:20.336Z,6.68
2023-04-15T16:27:58.837Z,6.70
2023-04-15T16:30:28.981Z,8.05
2023-04-15T16:32:57.588Z,6.32
2023-04-15T16:35:25.314Z,5.80
2023-04-15T16:37:52.978Z,6.93
2023-04-15T16:40:20.942Z,6.22
2023-04-15T16:42:50.575Z,8.90
2023-04-15T16:47:45.985Z,5.75
2023-04-15T16:50:13.684Z,6.07
2023-04-15T16:52:41.443Z,3.42
2023-04-15T16:55:09.837Z,5.50
2023-04-15T16:58:00.828Z,5.72
2023-04-15T17:00:27.273Z,7.22
2023-04-15T17:02:56.207Z,5.22
2023-04-15T17:05:24.034Z,3.88
2023-04-15T17:07:51.856Z,8.70
2023-04-15T17:10:19.569Z,2.75
2023-04-15T17:12:47.272Z,4.50
2023-04-15T17:15:15.114Z,4.18
2023-04-15T17:17:44.191Z,4.53
2023-04-15T17:20:12.658Z,3.97
2023-04-15T17:22:40.561Z,4.63
2023-04-15T17:25:09.159Z,4.72
2023-04-15T17:27:38.590Z,5.32
2023-04-15T17:30:07.800Z,5.10
2023-04-15T17:32:35.749Z,4.05
2023-04-15T17:35:06.296Z,3.75
2023-04-15T17:37:34.482Z,6.43
2023-04-15T17:40:02.317Z,3.53
2023-04-15T17:42:30.044Z,5.10
2023-04-15T17:44:57.989Z,6.53
2023-04-15T17:47:25.788Z,6.93
2023-04-15T17:49:53.500Z,9.15
2023-04-15T17:52:22.817Z,7.90
2023-04-15T17:54:50.645Z,5.63
2023-04-15T17:57:18.385Z,6.70
2023-04-15T17:59:48.018Z,7.95
2023-04-15T18:04:43.818Z,8.85
2023-04-15T18:07:11.779Z,9.82
2023-04-15T18:09:41.469Z,6.93
2023-04-15T18:14:37.383Z,6.25
2023-04-15T18:17:05.199Z,9.20
2023-04-15T18:19:32.926Z,5.60
2023-04-15T18:22:01.033Z,10.85
2023-04-15T18:24:29.027Z,7.55
2023-04-15T18:26:58.988Z,9.45
2023-04-15T18:29:26.945Z,8.77
2023-04-15T18:31:54.754Z,9.70
2023-04-15T18:34:22.554Z,10.85
2023-04-15T18:36:50.675Z,9.02
2023-04-15T18:39:18.434Z,10.45
2023-04-15T18:41:46.146Z,9.15
2023-04-15T18:44:15.616Z,7.50
2023-04-15T18:46:43.321Z,9.40
2023-04-15T18:49:13.064Z,9.70
2023-04-15T18:51:41.963Z,10.13
2023-04-15T18:54:09.664Z,9.30
2023-04-15T18:56:37.404Z,9.85
2023-04-15T18:59:08.576Z,6.90
2023-04-15T19:01:54.553Z,9.02
2023-04-15T19:04:22.526Z,6.05
2023-04-15T19:06:50.310Z,7.25
2023-04-15T19:09:18.013Z,9.00
2023-04-15T19:11:46.153Z,10.90
2023-04-15T19:14:13.837Z,7.75
2023-04-15T19:16:41.561Z,9.30
2023-04-15T19:19:10.948Z,8.10
2023-04-15T19:21:38.655Z,10.27
2023-04-15T19:24:06.762Z,8.18
2023-04-15T19:26:35.043Z,6.90
2023-04-15T19:29:02.907Z,11.02
2023-04-15T19:31:30.787Z,9.65
2023-04-15T19:33:58.862Z,5.22
2023-04-15T19:36:28.473Z,8.45
2023-04-15T19:41:24.092Z,12.23
2023-04-15T19:43:51.837Z,11.68
2023-04-15T19:46:19.797Z,11.15
2023-04-15T19:48:47.577Z,9.30
2023-04-15T19:51:15.479Z,10.35
2023-04-15T19:53:44.533Z,10.60
2023-04-15T19:56:12.893Z,12.45
2023-04-15T19:58:40.554Z,9.88
2023-04-15T20:01:08.260Z,8.82
2023-04-15T20:03:36.699Z,11.68
2023-04-15T20:06:04.647Z,13.82
2023-04-15T20:08:32.320Z,11.73
2023-04-15T20:11:02.327Z,10.07
2023-04-15T20:13:30.105Z,10.25
2023-04-15T20:15:57.809Z,11.73
2023-04-15T20:18:26.081Z,16.77
2023-04-15T20:20:53.919Z,14.02
2023-04-15T20:23:21.655Z,10.68
2023-04-15T20:25:49.608Z,9.73
2023-04-15T20:28:19.282Z,10.90
2023-04-15T20:33:15.339Z,15.52
2023-04-15T20:35:42.987Z,10.65
2023-04-15T20:38:10.845Z,8.35
2023-04-15T20:43:06.371Z,11.88
2023-04-15T20:45:35.510Z,10.85
2023-04-15T20:48:03.412Z,11.27
2023-04-15T20:50:31.261Z,12.93
2023-04-15T20:52:58.990Z,9.88
2023-04-15T20:55:28.329Z,10.32
2023-04-15T20:57:58.270Z,10.00
2023-04-15T21:00:26.229Z,13.52
2023-04-15T21:02:55.377Z,12.48
2023-04-15T21:05:23.166Z,9.55
2023-04-15T21:07:51.038Z,12.88
2023-04-15T21:10:18.865Z,9.45
2023-04-15T21:12:46.804Z,13.20
2023-04-15T21:15:14.530Z,11.13
2023-04-15T21:17:42.225Z,12.43
2023-04-15T21:20:12.662Z,10.75
2023-04-15T21:22:40.949Z,16.40
2023-04-15T21:25:09.632Z,12.88
2023-04-15T21:27:37.396Z,8.68
2023-04-15T21:30:06.317Z,8.98
2023-04-15T21:32:34.097Z,13.88
2023-04-15T21:35:01.956Z,12.27
2023-04-15T21:37:31.009Z,11.07
2023-04-15T21:39:58.662Z,12.45
2023-04-15T21:42:26.532Z,10.95
2023-04-15T21:44:54.808Z,8.07
2023-04-15T21:47:22.559Z,12.07
2023-04-15T21:49:50.381Z,9.52
2023-04-15T21:52:18.622Z,9.00
2023-04-15T21:54:47.846Z,11.48
2023-04-15T21:57:15.610Z,10.95
2023-04-15T21:59:43.308Z,14.38
2023-04-15T22:02:11.537Z,10.77
2023-04-15T22:04:39.304Z,11.45
2023-04-15T22:07:07.531Z,12.15
2023-04-15T22:09:35.214Z,13.55
2023-04-15T22:12:05.430Z,13.98
2023-04-15T22:14:33.594Z,12.55
2023-04-15T22:17:01.865Z,14.80
2023-04-15T22:19:29.581Z,9.20
2023-04-15T22:21:57.694Z,11.88
2023-04-15T22:24:32.285Z,16.83
2023-04-15T22:27:10.448Z,13.85
2023-04-15T22:29:38.139Z,12.27
2023-04-15T22:32:05.974Z,13.52
2023-04-15T22:34:34.161Z,9.13
2023-04-15T22:37:01.852Z,9.35
2023-04-15T22:39:29.555Z,10.20
2023-04-15T22:41:58.237Z,9.75
2023-04-15T22:44:27.300Z,14.17
2023-04-15T22:46:56.172Z,12.55
2023-04-15T22:49:24.495Z,10.63
2023-04-15T22:51:52.191Z,14.57
2023-04-15T22:54:20.614Z,10.68
2023-04-15T22:56:48.281Z,9.90
2023-04-15T22:59:15.962Z,13.32
2023-04-15T23:01:45.093Z,11.18
2023-04-15T23:04:25.125Z,13.27
2023-04-15T23:06:55.764Z,11.20
2023-04-15T23:09:23.900Z,10.93
2023-04-15T23:11:51.589Z,9.02
2023-04-15T23:14:19.290Z,9.27
2023-04-15T23:16:48.792Z,14.85
2023-04-15T23:19:16.560Z,9.40
2023-04-15T23:21:44.380Z,12.25
2023-04-15T23:24:13.417Z,9.27
2023-04-15T23:26:41.245Z,9.13
2023-04-15T23:29:09.562Z,10.63
2023-04-15T23:31:38.081Z,15.48
2023-04-15T23:34:07.187Z,10.60
2023-04-15T23:36:34.864Z,9.95
2023-04-15T23:39:03.033Z,12.15
2023-04-15T23:41:30.697Z,10.57
2023-04-15T23:43:58.403Z,10.80
2023-04-15T23:46:26.689Z,11.88
2023-04-15T23:48:54.418Z,13.07
2023-04-15T23:51:23.480Z,10.75
2023-04-15T23:53:53.115Z,12.95
2023-04-15T23:56:20.988Z,11.68
2023-04-15T23:58:48.661Z,12.18
